sensor_id;sensor_type;location;lat;lon;timestamp;P1;durP1;ratioP1;P2;durP2;ratioP2
68744;SDS011;73143;45.456;11.064;2024-02-16T00:01:18;64.50;;;39.60;;
68744;SDS011;73143;45.456;11.064;2024-02-16T00:03:56;73.80;;;43.90;;
68744;SDS011;73143;45.456;11.064;2024-02-16T00:06:33;81.50;;;50.00;;
68744;SDS011;73143;45.456;11.064;2024-02-16T00:09:10;92.70;;;54.10;;
68744;SDS011;73143;45.456;11.064;2024-02-16T00:11:47;104.20;;;58.60;;
68744;SDS011;73143;45.456;11.064;2024-02-16T00:14:24;106.80;;;61.00;;
68744;SDS011;73143;45.456;11.064;2024-02-16T00:17:01;88.20;;;53.30;;
68744;SDS011;73143;45.456;11.064;2024-02-16T00:19:39;86.10;;;52.00;;
68744;SDS011;73143;45.456;11.064;2024-02-16T00:22:15;87.30;;;53.50;;
68744;SDS011;73143;45.456;11.064;2024-02-16T00:24:52;81.10;;;49.40;;
68744;SDS011;73143;45.456;11.064;2024-02-16T00:27:28;78.60;;;48.60;;
68744;SDS011;73143;45.456;11.064;2024-02-16T00:30:08;75.00;;;46.60;;
68744;SDS011;73143;45.456;11.064;2024-02-16T00:32:49;73.80;;;47.30;;
68744;SDS011;73143;45.456;11.064;2024-02-16T00:35:26;75.80;;;48.30;;
68744;SDS011;73143;45.456;11.064;2024-02-16T00:38:05;72.60;;;46.40;;
68744;SDS011;73143;45.456;11.064;2024-02-16T00:40:43;76.00;;;45.00;;
68744;SDS011;73143;45.456;11.064;2024-02-16T00:43:19;73.10;;;45.70;;
68744;SDS011;73143;45.456;11.064;2024-02-16T00:45:56;70.80;;;43.30;;
68744;SDS011;73143;45.456;11.064;2024-02-16T00:48:33;69.00;;;42.60;;
68744;SDS011;73143;45.456;11.064;2024-02-16T00:51:11;72.40;;;43.80;;
68744;SDS011;73143;45.456;11.064;2024-02-16T00:53:48;70.90;;;43.90;;
68744;SDS011;73143;45.456;11.064;2024-02-16T00:56:25;76.70;;;47.20;;
68744;SDS011;73143;45.456;11.064;2024-02-16T00:59:02;71.90;;;44.50;;
68744;SDS011;73143;45.456;11.064;2024-02-16T01:01:40;74.50;;;46.60;;
68744;SDS011;73143;45.456;11.064;2024-02-16T01:04:18;81.80;;;49.30;;
68744;SDS011;73143;45.456;11.064;2024-02-16T01:06:55;73.20;;;48.30;;
68744;SDS011;73143;45.456;11.064;2024-02-16T01:09:32;70.30;;;44.70;;
68744;SDS011;73143;45.456;11.064;2024-02-16T01:12:10;73.40;;;45.40;;
68744;SDS011;73143;45.456;11.064;2024-02-16T01:14:47;74.90;;;47.30;;
68744;SDS011;73143;45.456;11.064;2024-02-16T01:17:23;72.50;;;45.30;;
68744;SDS011;73143;45.456;11.064;2024-02-16T01:20:01;66.70;;;42.50;;
68744;SDS011;73143;45.456;11.064;2024-02-16T01:22:43;64.80;;;41.10;;
68744;SDS011;73143;45.456;11.064;2024-02-16T01:25:20;63.50;;;41.70;;
68744;SDS011;73143;45.456;11.064;2024-02-16T01:27:58;77.80;;;46.80;;
68744;SDS011;73143;45.456;11.064;2024-02-16T01:30:34;72.60;;;45.00;;
68744;SDS011;73143;45.456;11.064;2024-02-16T01:33:11;75.00;;;46.30;;
68744;SDS011;73143;45.456;11.064;2024-02-16T01:35:48;75.10;;;45.80;;
68744;SDS011;73143;45.456;11.064;2024-02-16T01:38:25;74.00;;;46.00;;
68744;SDS011;73143;45.456;11.064;2024-02-16T01:41:02;74.40;;;46.90;;
68744;SDS011;73143;45.456;11.064;2024-02-16T01:43:38;74.40;;;45.90;;
68744;SDS011;73143;45.456;11.064;2024-02-16T01:46:15;68.10;;;41.70;;
68744;SDS011;73143;45.456;11.064;2024-02-16T01:48:52;63.10;;;39.50;;
68744;SDS011;73143;45.456;11.064;2024-02-16T01:51:30;64.50;;;41.60;;
68744;SDS011;73143;45.456;11.064;2024-02-16T01:54:08;65.90;;;41.50;;
68744;SDS011;73143;45.456;11.064;2024-02-16T01:56:45;66.70;;;40.90;;
68744;SDS011;73143;45.456;11.064;2024-02-16T01:59:22;64.60;;;41.50;;
68744;SDS011;73143;45.456;11.064;2024-02-16T02:01:59;65.90;;;42.60;;
68744;SDS011;73143;45.456;11.064;2024-02-16T02:04:36;66.70;;;42.00;;
68744;SDS011;73143;45.456;11.064;2024-02-16T02:07:26;61.90;;;40.10;;
68744;SDS011;73143;45.456;11.064;2024-02-16T02:10:03;67.50;;;41.40;;
68744;SDS011;73143;45.456;11.064;2024-02-16T02:12:45;69.60;;;42.30;;
68744;SDS011;73143;45.456;11.064;2024-02-16T02:15:23;70.60;;;41.10;;
68744;SDS011;73143;45.456;11.064;2024-02-16T02:18:00;63.40;;;38.50;;
68744;SDS011;73143;45.456;11.064;2024-02-16T02:20:38;68.20;;;41.60;;
68744;SDS011;73143;45.456;11.064;2024-02-16T02:23:16;63.80;;;39.50;;
68744;SDS011;73143;45.456;11.064;2024-02-16T02:25:53;60.60;;;38.20;;
68744;SDS011;73143;45.456;11.064;2024-02-16T02:28:30;64.40;;;41.90;;
68744;SDS011;73143;45.456;11.064;2024-02-16T02:31:07;65.00;;;39.60;;
68744;SDS011;73143;45.456;11.064;2024-02-16T02:33:45;67.40;;;38.90;;
68744;SDS011;73143;45.456;11.064;2024-02-16T02:36:22;66.00;;;41.90;;
68744;SDS011;73143;45.456;11.064;2024-02-16T02:38:59;65.10;;;41.20;;
68744;SDS011;73143;45.456;11.064;2024-02-16T02:41:36;59.40;;;38.90;;
68744;SDS011;73143;45.456;11.064;2024-02-16T02:44:12;55.40;;;37.30;;
68744;SDS011;73143;45.456;11.064;2024-02-16T02:46:49;59.40;;;38.10;;
68744;SDS011;73143;45.456;11.064;2024-02-16T02:49:26;56.50;;;37.50;;
68744;SDS011;73143;45.456;11.064;2024-02-16T02:52:03;64.10;;;38.70;;
68744;SDS011;73143;45.456;11.064;2024-02-16T02:54:40;60.50;;;39.30;;
68744;SDS011;73143;45.456;11.064;2024-02-16T02:57:18;71.00;;;44.30;;
68744;SDS011;73143;45.456;11.064;2024-02-16T02:59:54;77.20;;;48.10;;
68744;SDS011;73143;45.456;11.064;2024-02-16T03:02:43;76.00;;;48.70;;
68744;SDS011;73143;45.456;11.064;2024-02-16T03:05:21;69.10;;;44.30;;
68744;SDS011;73143;45.456;11.064;2024-02-16T03:07:58;67.30;;;42.70;;
68744;SDS011;73143;45.456;11.064;2024-02-16T03:10:35;71.50;;;45.70;;
68744;SDS011;73143;45.456;11.064;2024-02-16T03:13:11;67.30;;;42.80;;
68744;SDS011;73143;45.456;11.064;2024-02-16T03:15:50;64.80;;;40.80;;
68744;SDS011;73143;45.456;11.064;2024-02-16T03:18:28;67.60;;;42.40;;
68744;SDS011;73143;45.456;11.064;2024-02-16T03:21:07;70.60;;;42.50;;
68744;SDS011;73143;45.456;11.064;2024-02-16T03:23:47;62.40;;;40.00;;
68744;SDS011;73143;45.456;11.064;2024-02-16T03:26:25;61.60;;;39.40;;
68744;SDS011;73143;45.456;11.064;2024-02-16T03:29:02;63.70;;;38.90;;
68744;SDS011;73143;45.456;11.064;2024-02-16T03:31:39;60.70;;;37.80;;
68744;SDS011;73143;45.456;11.064;2024-02-16T03:34:17;62.30;;;37.40;;
68744;SDS011;73143;45.456;11.064;2024-02-16T03:36:54;54.70;;;36.10;;
68744;SDS011;73143;45.456;11.064;2024-02-16T03:39:33;63.90;;;38.80;;
68744;SDS011;73143;45.456;11.064;2024-02-16T03:42:10;60.30;;;37.10;;
68744;SDS011;73143;45.456;11.064;2024-02-16T03:44:46;60.80;;;39.30;;
68744;SDS011;73143;45.456;11.064;2024-02-16T03:47:24;62.80;;;38.90;;
68744;SDS011;73143;45.456;11.064;2024-02-16T03:50:01;63.10;;;38.20;;
68744;SDS011;73143;45.456;11.064;2024-02-16T03:52:39;63.10;;;37.90;;
68744;SDS011;73143;45.456;11.064;2024-02-16T03:55:16;66.30;;;40.30;;
68744;SDS011;73143;45.456;11.064;2024-02-16T03:57:53;63.20;;;38.20;;
68744;SDS011;73143;45.456;11.064;2024-02-16T04:00:31;65.60;;;39.30;;
68744;SDS011;73143;45.456;11.064;2024-02-16T04:03:08;60.10;;;37.70;;
68744;SDS011;73143;45.456;11.064;2024-02-16T04:05:45;63.90;;;39.00;;
68744;SDS011;73143;45.456;11.064;2024-02-16T04:08:22;56.70;;;36.00;;
68744;SDS011;73143;45.456;11.064;2024-02-16T04:11:00;63.00;;;37.80;;
68744;SDS011;73143;45.456;11.064;2024-02-16T04:13:37;64.80;;;37.70;;
68744;SDS011;73143;45.456;11.064;2024-02-16T04:16:14;61.20;;;37.50;;
68744;SDS011;73143;45.456;11.064;2024-02-16T04:18:53;65.70;;;39.30;;
68744;SDS011;73143;45.456;11.064;2024-02-16T04:21:30;61.10;;;39.60;;
68744;SDS011;73143;45.456;11.064;2024-02-16T04:24:09;68.60;;;41.00;;
68744;SDS011;73143;45.456;11.064;2024-02-16T04:26:46;71.60;;;41.60;;
68744;SDS011;73143;45.456;11.064;2024-02-16T04:29:23;67.60;;;39.90;;
68744;SDS011;73143;45.456;11.064;2024-02-16T04:32:01;64.70;;;38.40;;
68744;SDS011;73143;45.456;11.064;2024-02-16T04:34:39;70.40;;;40.70;;
68744;SDS011;73143;45.456;11.064;2024-02-16T04:37:16;66.70;;;41.20;;
68744;SDS011;73143;45.456;11.064;2024-02-16T04:39:54;65.40;;;39.00;;
68744;SDS011;73143;45.456;11.064;2024-02-16T04:42:31;64.00;;;37.60;;
68744;SDS011;73143;45.456;11.064;2024-02-16T04:45:14;67.50;;;39.70;;
68744;SDS011;73143;45.456;11.064;2024-02-16T04:47:51;70.30;;;41.80;;
68744;SDS011;73143;45.456;11.064;2024-02-16T04:50:28;71.50;;;42.90;;
68744;SDS011;73143;45.456;11.064;2024-02-16T04:53:05;71.20;;;43.00;;
68744;SDS011;73143;45.456;11.064;2024-02-16T04:55:42;67.20;;;41.90;;
68744;SDS011;73143;45.456;11.064;2024-02-16T04:58:18;70.00;;;43.90;;
68744;SDS011;73143;45.456;11.064;2024-02-16T05:00:56;74.80;;;44.50;;
68744;SDS011;73143;45.456;11.064;2024-02-16T05:03:32;70.50;;;43.90;;
68744;SDS011;73143;45.456;11.064;2024-02-16T05:06:12;75.90;;;44.70;;
68744;SDS011;73143;45.456;11.064;2024-02-16T05:08:49;65.90;;;38.70;;
68744;SDS011;73143;45.456;11.064;2024-02-16T05:11:26;69.80;;;40.70;;
68744;SDS011;73143;45.456;11.064;2024-02-16T05:14:05;71.10;;;42.10;;
68744;SDS011;73143;45.456;11.064;2024-02-16T05:16:47;65.30;;;40.50;;
68744;SDS011;73143;45.456;11.064;2024-02-16T05:19:26;66.60;;;40.30;;
68744;SDS011;73143;45.456;11.064;2024-02-16T05:22:08;72.80;;;43.60;;
68744;SDS011;73143;45.456;11.064;2024-02-16T05:24:45;74.70;;;40.40;;
68744;SDS011;73143;45.456;11.064;2024-02-16T05:27:22;67.90;;;39.60;;
68744;SDS011;73143;45.456;11.064;2024-02-16T05:30:00;63.40;;;39.40;;
68744;SDS011;73143;45.456;11.064;2024-02-16T05:32:39;68.70;;;40.80;;
68744;SDS011;73143;45.456;11.064;2024-02-16T05:35:16;63.40;;;38.50;;
68744;SDS011;73143;45.456;11.064;2024-02-16T05:37:53;65.20;;;40.50;;
68744;SDS011;73143;45.456;11.064;2024-02-16T05:40:33;60.30;;;38.80;;
68744;SDS011;73143;45.456;11.064;2024-02-16T05:43:25;61.00;;;38.30;;
68744;SDS011;73143;45.456;11.064;2024-02-16T05:46:02;69.20;;;40.80;;
68744;SDS011;73143;45.456;11.064;2024-02-16T05:48:39;67.50;;;40.00;;
68744;SDS011;73143;45.456;11.064;2024-02-16T05:51:17;66.20;;;41.30;;
68744;SDS011;73143;45.456;11.064;2024-02-16T05:53:53;64.40;;;37.10;;
68744;SDS011;73143;45.456;11.064;2024-02-16T05:56:30;59.30;;;37.30;;
68744;SDS011;73143;45.456;11.064;2024-02-16T05:59:09;62.10;;;37.90;;
68744;SDS011;73143;45.456;11.064;2024-02-16T06:01:45;60.20;;;38.00;;
68744;SDS011;73143;45.456;11.064;2024-02-16T06:04:23;61.10;;;37.70;;
68744;SDS011;73143;45.456;11.064;2024-02-16T06:07:00;67.50;;;40.50;;
68744;SDS011;73143;45.456;11.064;2024-02-16T06:09:38;64.30;;;37.90;;
68744;SDS011;73143;45.456;11.064;2024-02-16T06:12:16;69.30;;;39.70;;
68744;SDS011;73143;45.456;11.064;2024-02-16T06:14:53;62.00;;;38.50;;
68744;SDS011;73143;45.456;11.064;2024-02-16T06:17:30;67.40;;;39.30;;
68744;SDS011;73143;45.456;11.064;2024-02-16T06:20:12;67.00;;;39.60;;
68744;SDS011;73143;45.456;11.064;2024-02-16T06:22:51;68.90;;;37.70;;
68744;SDS011;73143;45.456;11.064;2024-02-16T06:25:29;64.70;;;38.00;;
68744;SDS011;73143;45.456;11.064;2024-02-16T06:28:07;61.10;;;37.50;;
68744;SDS011;73143;45.456;11.064;2024-02-16T06:30:44;64.50;;;38.00;;
68744;SDS011;73143;45.456;11.064;2024-02-16T06:33:21;64.50;;;38.40;;
68744;SDS011;73143;45.456;11.064;2024-02-16T06:35:58;63.60;;;36.00;;
68744;SDS011;73143;45.456;11.064;2024-02-16T06:38:35;59.50;;;34.70;;
68744;SDS011;73143;45.456;11.064;2024-02-16T06:41:14;62.70;;;35.20;;
68744;SDS011;73143;45.456;11.064;2024-02-16T06:43:51;61.60;;;33.20;;
68744;SDS011;73143;45.456;11.064;2024-02-16T06:46:27;64.30;;;37.10;;
68744;SDS011;73143;45.456;11.064;2024-02-16T06:49:05;56.20;;;33.50;;
68744;SDS011;73143;45.456;11.064;2024-02-16T06:51:41;58.70;;;32.60;;
68744;SDS011;73143;45.456;11.064;2024-02-16T06:54:18;52.90;;;31.30;;
68744;SDS011;73143;45.456;11.064;2024-02-16T06:56:57;53.90;;;31.10;;
68744;SDS011;73143;45.456;11.064;2024-02-16T06:59:35;56.10;;;32.10;;
68744;SDS011;73143;45.456;11.064;2024-02-16T07:02:12;51.60;;;31.00;;
68744;SDS011;73143;45.456;11.064;2024-02-16T07:04:49;56.40;;;30.50;;
68744;SDS011;73143;45.456;11.064;2024-02-16T07:07:26;56.40;;;31.50;;
68744;SDS011;73143;45.456;11.064;2024-02-16T07:10:10;48.90;;;29.70;;
68744;SDS011;73143;45.456;11.064;2024-02-16T07:12:47;49.60;;;30.30;;
68744;SDS011;73143;45.456;11.064;2024-02-16T07:15:25;48.00;;;28.90;;
68744;SDS011;73143;45.456;11.064;2024-02-16T07:18:01;51.20;;;31.10;;
68744;SDS011;73143;45.456;11.064;2024-02-16T07:20:40;51.10;;;30.90;;
68744;SDS011;73143;45.456;11.064;2024-02-16T07:23:21;52.80;;;29.80;;
68744;SDS011;73143;45.456;11.064;2024-02-16T07:25:59;49.60;;;30.70;;
68744;SDS011;73143;45.456;11.064;2024-02-16T07:28:38;53.70;;;33.80;;
68744;SDS011;73143;45.456;11.064;2024-02-16T07:31:15;53.60;;;32.60;;
68744;SDS011;73143;45.456;11.064;2024-02-16T07:33:52;51.80;;;33.20;;
68744;SDS011;73143;45.456;11.064;2024-02-16T07:36:29;57.60;;;33.90;;
68744;SDS011;73143;45.456;11.064;2024-02-16T07:39:10;54.10;;;34.70;;
68744;SDS011;73143;45.456;11.064;2024-02-16T07:41:47;63.50;;;37.70;;
68744;SDS011;73143;45.456;11.064;2024-02-16T07:44:24;59.90;;;36.50;;
68744;SDS011;73143;45.456;11.064;2024-02-16T07:47:01;59.80;;;35.30;;
68744;SDS011;73143;45.456;11.064;2024-02-16T07:49:41;68.80;;;39.40;;
68744;SDS011;73143;45.456;11.064;2024-02-16T07:52:18;63.10;;;38.20;;
68744;SDS011;73143;45.456;11.064;2024-02-16T07:54:55;65.20;;;38.70;;
68744;SDS011;73143;45.456;11.064;2024-02-16T07:57:33;59.10;;;36.60;;
68744;SDS011;73143;45.456;11.064;2024-02-16T08:00:14;60.00;;;37.00;;
68744;SDS011;73143;45.456;11.064;2024-02-16T08:02:53;60.00;;;37.40;;
68744;SDS011;73143;45.456;11.064;2024-02-16T08:05:29;65.10;;;39.10;;
68744;SDS011;73143;45.456;11.064;2024-02-16T08:08:09;62.70;;;38.40;;
68744;SDS011;73143;45.456;11.064;2024-02-16T08:10:46;64.20;;;38.90;;
68744;SDS011;73143;45.456;11.064;2024-02-16T08:13:24;66.20;;;37.50;;
68744;SDS011;73143;45.456;11.064;2024-02-16T08:16:00;67.00;;;40.80;;
68744;SDS011;73143;45.456;11.064;2024-02-16T08:18:39;61.90;;;37.70;;
68744;SDS011;73143;45.456;11.064;2024-02-16T08:21:17;64.30;;;39.40;;
68744;SDS011;73143;45.456;11.064;2024-02-16T08:23:54;64.90;;;37.70;;
68744;SDS011;73143;45.456;11.064;2024-02-16T08:26:32;65.40;;;40.30;;
68744;SDS011;73143;45.456;11.064;2024-02-16T08:29:08;64.20;;;39.60;;
68744;SDS011;73143;45.456;11.064;2024-02-16T08:31:47;65.90;;;40.00;;
68744;SDS011;73143;45.456;11.064;2024-02-16T08:34:24;68.10;;;41.00;;
68744;SDS011;73143;45.456;11.064;2024-02-16T08:37:01;68.50;;;40.60;;
68744;SDS011;73143;45.456;11.064;2024-02-16T08:39:40;56.20;;;37.20;;
68744;SDS011;73143;45.456;11.064;2024-02-16T08:42:17;64.30;;;39.80;;
68744;SDS011;73143;45.456;11.064;2024-02-16T08:44:55;63.70;;;40.70;;
68744;SDS011;73143;45.456;11.064;2024-02-16T08:47:34;55.00;;;36.20;;
68744;SDS011;73143;45.456;11.064;2024-02-16T08:50:14;61.20;;;38.10;;
68744;SDS011;73143;45.456;11.064;2024-02-16T08:52:51;63.50;;;39.60;;
68744;SDS011;73143;45.456;11.064;2024-02-16T08:55:28;61.30;;;38.30;;
68744;SDS011;73143;45.456;11.064;2024-02-16T08:58:06;60.60;;;38.60;;
68744;SDS011;73143;45.456;11.064;2024-02-16T09:00:44;68.20;;;39.10;;
68744;SDS011;73143;45.456;11.064;2024-02-16T09:03:21;60.00;;;39.40;;
68744;SDS011;73143;45.456;11.064;2024-02-16T09:05:59;62.20;;;38.30;;
68744;SDS011;73143;45.456;11.064;2024-02-16T09:08:36;57.40;;;35.00;;
68744;SDS011;73143;45.456;11.064;2024-02-16T09:11:13;50.90;;;34.50;;
68744;SDS011;73143;45.456;11.064;2024-02-16T09:13:51;60.30;;;38.40;;
68744;SDS011;73143;45.456;11.064;2024-02-16T09:16:28;55.50;;;35.00;;
68744;SDS011;73143;45.456;11.064;2024-02-16T09:19:05;62.80;;;37.10;;
68744;SDS011;73143;45.456;11.064;2024-02-16T09:21:43;57.60;;;38.20;;
68744;SDS011;73143;45.456;11.064;2024-02-16T09:24:20;60.80;;;38.20;;
68744;SDS011;73143;45.456;11.064;2024-02-16T09:27:00;57.90;;;38.40;;
68744;SDS011;73143;45.456;11.064;2024-02-16T09:29:37;96.00;;;42.60;;
68744;SDS011;73143;45.456;11.064;2024-02-16T09:32:14;70.10;;;40.50;;
68744;SDS011;73143;45.456;11.064;2024-02-16T09:34:50;62.20;;;39.70;;
68744;SDS011;73143;45.456;11.064;2024-02-16T09:37:28;75.80;;;41.40;;
68744;SDS011;73143;45.456;11.064;2024-02-16T09:40:07;79.10;;;40.50;;
68744;SDS011;73143;45.456;11.064;2024-02-16T09:42:50;72.20;;;43.00;;
68744;SDS011;73143;45.456;11.064;2024-02-16T09:45:28;68.30;;;43.60;;
68744;SDS011;73143;45.456;11.064;2024-02-16T09:48:10;62.30;;;40.50;;
68744;SDS011;73143;45.456;11.064;2024-02-16T09:50:47;64.00;;;40.90;;
68744;SDS011;73143;45.456;11.064;2024-02-16T09:53:26;306.20;;;60.40;;
68744;SDS011;73143;45.456;11.064;2024-02-16T09:56:03;98.60;;;44.50;;
68744;SDS011;73143;45.456;11.064;2024-02-16T09:58:43;66.60;;;41.20;;
68744;SDS011;73143;45.456;11.064;2024-02-16T10:01:22;67.60;;;43.30;;
68744;SDS011;73143;45.456;11.064;2024-02-16T10:04:07;64.90;;;42.20;;
68744;SDS011;73143;45.456;11.064;2024-02-16T10:06:50;67.70;;;43.50;;
68744;SDS011;73143;45.456;11.064;2024-02-16T10:09:28;66.90;;;43.80;;
68744;SDS011;73143;45.456;11.064;2024-02-16T10:12:08;67.00;;;42.00;;
68744;SDS011;73143;45.456;11.064;2024-02-16T10:14:57;64.40;;;42.00;;
68744;SDS011;73143;45.456;11.064;2024-02-16T10:17:36;66.20;;;42.60;;
68744;SDS011;73143;45.456;11.064;2024-02-16T10:20:20;73.60;;;44.20;;
68744;SDS011;73143;45.456;11.064;2024-02-16T10:23:24;73.10;;;45.80;;
68744;SDS011;73143;45.456;11.064;2024-02-16T10:26:14;72.80;;;44.90;;
68744;SDS011;73143;45.456;11.064;2024-02-16T10:28:50;75.00;;;46.00;;
68744;SDS011;73143;45.456;11.064;2024-02-16T10:31:32;74.10;;;48.70;;
68744;SDS011;73143;45.456;11.064;2024-02-16T10:34:11;80.20;;;50.50;;
68744;SDS011;73143;45.456;11.064;2024-02-16T10:36:48;77.50;;;48.50;;
68744;SDS011;73143;45.456;11.064;2024-02-16T10:39:25;77.60;;;49.70;;
68744;SDS011;73143;45.456;11.064;2024-02-16T10:42:04;83.90;;;52.20;;
68744;SDS011;73143;45.456;11.064;2024-02-16T10:44:42;77.30;;;48.90;;
68744;SDS011;73143;45.456;11.064;2024-02-16T10:47:20;78.40;;;50.10;;
68744;SDS011;73143;45.456;11.064;2024-02-16T10:49:57;83.10;;;51.00;;
68744;SDS011;73143;45.456;11.064;2024-02-16T10:52:36;80.70;;;51.00;;
68744;SDS011;73143;45.456;11.064;2024-02-16T10:55:18;84.10;;;53.80;;
68744;SDS011;73143;45.456;11.064;2024-02-16T10:57:58;94.90;;;58.30;;
68744;SDS011;73143;45.456;11.064;2024-02-16T11:00:36;91.80;;;57.10;;
68744;SDS011;73143;45.456;11.064;2024-02-16T11:03:24;94.70;;;55.90;;
68744;SDS011;73143;45.456;11.064;2024-02-16T11:06:01;86.30;;;53.70;;
68744;SDS011;73143;45.456;11.064;2024-02-16T11:08:51;88.10;;;55.50;;
68744;SDS011;73143;45.456;11.064;2024-02-16T11:11:28;92.00;;;55.10;;
68744;SDS011;73143;45.456;11.064;2024-02-16T11:14:16;84.70;;;52.50;;
68744;SDS011;73143;45.456;11.064;2024-02-16T11:16:55;80.30;;;49.90;;
68744;SDS011;73143;45.456;11.064;2024-02-16T11:19:33;79.10;;;48.00;;
68744;SDS011;73143;45.456;11.064;2024-02-16T11:22:10;83.60;;;50.90;;
68744;SDS011;73143;45.456;11.064;2024-02-16T11:24:53;84.00;;;50.40;;
68744;SDS011;73143;45.456;11.064;2024-02-16T11:27:33;78.40;;;48.50;;
68744;SDS011;73143;45.456;11.064;2024-02-16T11:30:16;78.50;;;48.40;;
68744;SDS011;73143;45.456;11.064;2024-02-16T11:32:55;81.50;;;51.10;;
68744;SDS011;73143;45.456;11.064;2024-02-16T11:35:32;80.20;;;49.20;;
68744;SDS011;73143;45.456;11.064;2024-02-16T11:38:09;80.70;;;47.50;;
68744;SDS011;73143;45.456;11.064;2024-02-16T11:40:58;77.60;;;47.50;;
68744;SDS011;73143;45.456;11.064;2024-02-16T11:43:36;71.50;;;45.40;;
68744;SDS011;73143;45.456;11.064;2024-02-16T11:46:17;78.50;;;48.30;;
68744;SDS011;73143;45.456;11.064;2024-02-16T11:48:53;78.40;;;48.90;;
68744;SDS011;73143;45.456;11.064;2024-02-16T11:51:41;74.20;;;45.40;;
68744;SDS011;73143;45.456;11.064;2024-02-16T11:54:22;75.70;;;47.10;;
68744;SDS011;73143;45.456;11.064;2024-02-16T11:57:00;77.00;;;48.00;;
68744;SDS011;73143;45.456;11.064;2024-02-16T11:59:40;71.40;;;44.90;;
68744;SDS011;73143;45.456;11.064;2024-02-16T12:02:23;74.10;;;44.80;;
68744;SDS011;73143;45.456;11.064;2024-02-16T12:05:04;77.30;;;47.50;;
68744;SDS011;73143;45.456;11.064;2024-02-16T12:07:50;77.70;;;47.10;;
68744;SDS011;73143;45.456;11.064;2024-02-16T12:10:27;76.20;;;45.60;;
68744;SDS011;73143;45.456;11.064;2024-02-16T12:13:09;72.30;;;44.10;;
68744;SDS011;73143;45.456;11.064;2024-02-16T12:15:46;69.70;;;43.00;;
68744;SDS011;73143;45.456;11.064;2024-02-16T12:18:28;73.00;;;45.80;;
68744;SDS011;73143;45.456;11.064;2024-02-16T12:21:06;69.60;;;45.10;;
68744;SDS011;73143;45.456;11.064;2024-02-16T12:23:43;72.50;;;44.50;;
68744;SDS011;73143;45.456;11.064;2024-02-16T12:26:20;73.90;;;46.10;;
68744;SDS011;73143;45.456;11.064;2024-02-16T12:28:57;75.20;;;46.00;;
68744;SDS011;73143;45.456;11.064;2024-02-16T12:31:34;76.40;;;45.30;;
68744;SDS011;73143;45.456;11.064;2024-02-16T12:34:11;67.00;;;42.80;;
68744;SDS011;73143;45.456;11.064;2024-02-16T12:36:52;71.20;;;43.40;;
68744;SDS011;73143;45.456;11.064;2024-02-16T12:39:29;73.60;;;46.30;;
68744;SDS011;73143;45.456;11.064;2024-02-16T12:42:10;66.20;;;41.00;;
68744;SDS011;73143;45.456;11.064;2024-02-16T12:44:48;66.70;;;43.70;;
68744;SDS011;73143;45.456;11.064;2024-02-16T12:47:25;66.70;;;41.00;;
68744;SDS011;73143;45.456;11.064;2024-02-16T12:50:02;66.60;;;41.40;;
68744;SDS011;73143;45.456;11.064;2024-02-16T12:52:41;68.80;;;42.10;;
68744;SDS011;73143;45.456;11.064;2024-02-16T12:55:29;70.30;;;43.20;;
68744;SDS011;73143;45.456;11.064;2024-02-16T12:58:07;70.70;;;42.40;;
68744;SDS011;73143;45.456;11.064;2024-02-16T13:00:44;65.70;;;41.50;;
68744;SDS011;73143;45.456;11.064;2024-02-16T13:03:22;66.40;;;42.70;;
68744;SDS011;73143;45.456;11.064;2024-02-16T13:05:58;66.70;;;39.60;;
68744;SDS011;73143;45.456;11.064;2024-02-16T13:08:35;72.10;;;44.20;;
68744;SDS011;73143;45.456;11.064;2024-02-16T13:11:12;70.70;;;42.60;;
68744;SDS011;73143;45.456;11.064;2024-02-16T13:13:49;67.10;;;40.20;;
68744;SDS011;73143;45.456;11.064;2024-02-16T13:16:27;68.50;;;41.10;;
68744;SDS011;73143;45.456;11.064;2024-02-16T13:19:04;66.90;;;42.00;;
68744;SDS011;73143;45.456;11.064;2024-02-16T13:21:41;82.30;;;43.40;;
68744;SDS011;73143;45.456;11.064;2024-02-16T13:24:18;75.70;;;39.70;;
68744;SDS011;73143;45.456;11.064;2024-02-16T13:26:55;77.30;;;39.50;;
68744;SDS011;73143;45.456;11.064;2024-02-16T13:29:32;99.00;;;43.00;;
68744;SDS011;73143;45.456;11.064;2024-02-16T13:32:09;75.00;;;45.40;;
68744;SDS011;73143;45.456;11.064;2024-02-16T13:34:50;69.40;;;42.20;;
68744;SDS011;73143;45.456;11.064;2024-02-16T13:37:27;76.40;;;45.10;;
68744;SDS011;73143;45.456;11.064;2024-02-16T13:40:06;69.60;;;42.60;;
68744;SDS011;73143;45.456;11.064;2024-02-16T13:42:50;70.00;;;42.60;;
68744;SDS011;73143;45.456;11.064;2024-02-16T13:45:50;64.20;;;39.20;;
68744;SDS011;73143;45.456;11.064;2024-02-16T13:48:30;65.20;;;39.80;;
68744;SDS011;73143;45.456;11.064;2024-02-16T13:51:13;70.50;;;42.30;;
68744;SDS011;73143;45.456;11.064;2024-02-16T13:53:51;78.10;;;44.00;;
68744;SDS011;73143;45.456;11.064;2024-02-16T13:56:28;65.30;;;40.00;;
68744;SDS011;73143;45.456;11.064;2024-02-16T13:59:04;68.00;;;41.10;;
68744;SDS011;73143;45.456;11.064;2024-02-16T14:01:42;69.70;;;41.20;;
68744;SDS011;73143;45.456;11.064;2024-02-16T14:04:20;64.90;;;40.10;;
68744;SDS011;73143;45.456;11.064;2024-02-16T14:06:58;74.80;;;43.10;;
68744;SDS011;73143;45.456;11.064;2024-02-16T14:09:49;154.30;;;50.50;;
68744;SDS011;73143;45.456;11.064;2024-02-16T14:12:26;77.10;;;41.60;;
68744;SDS011;73143;45.456;11.064;2024-02-16T14:15:03;71.30;;;42.50;;
68744;SDS011;73143;45.456;11.064;2024-02-16T14:17:47;68.70;;;43.70;;
68744;SDS011;73143;45.456;11.064;2024-02-16T14:20:28;65.90;;;42.00;;
68744;SDS011;73143;45.456;11.064;2024-02-16T14:23:05;73.90;;;45.40;;
68744;SDS011;73143;45.456;11.064;2024-02-16T14:25:42;69.40;;;42.90;;
68744;SDS011;73143;45.456;11.064;2024-02-16T14:28:20;73.70;;;42.80;;
68744;SDS011;73143;45.456;11.064;2024-02-16T14:30:57;94.00;;;44.90;;
68744;SDS011;73143;45.456;11.064;2024-02-16T14:33:35;91.50;;;44.50;;
68744;SDS011;73143;45.456;11.064;2024-02-16T14:36:13;75.50;;;43.70;;
68744;SDS011;73143;45.456;11.064;2024-02-16T14:38:50;73.50;;;43.80;;
68744;SDS011;73143;45.456;11.064;2024-02-16T14:41:27;74.00;;;45.70;;
68744;SDS011;73143;45.456;11.064;2024-02-16T14:44:07;69.70;;;44.00;;
68744;SDS011;73143;45.456;11.064;2024-02-16T14:46:44;67.90;;;42.40;;
68744;SDS011;73143;45.456;11.064;2024-02-16T14:49:21;81.60;;;45.60;;
68744;SDS011;73143;45.456;11.064;2024-02-16T14:52:00;81.00;;;45.70;;
68744;SDS011;73143;45.456;11.064;2024-02-16T14:54:37;98.60;;;46.10;;
68744;SDS011;73143;45.456;11.064;2024-02-16T14:57:14;82.30;;;45.60;;
68744;SDS011;73143;45.456;11.064;2024-02-16T14:59:52;117.70;;;48.70;;
68744;SDS011;73143;45.456;11.064;2024-02-16T15:02:29;83.00;;;45.60;;
68744;SDS011;73143;45.456;11.064;2024-02-16T15:05:11;75.90;;;43.30;;
68744;SDS011;73143;45.456;11.064;2024-02-16T15:07:48;70.80;;;44.10;;
68744;SDS011;73143;45.456;11.064;2024-02-16T15:10:26;67.40;;;40.90;;
68744;SDS011;73143;45.456;11.064;2024-02-16T15:13:04;64.10;;;39.40;;